sensor_id;sensor_type;location;lat;lon;timestamp;P1;durP1;ratioP1;P2;durP2;ratioP2
6926;SDS011;3503;50.07605000;8.86719200;2023-02-15T00:04:37;42.73;;;16.47;;
6926;SDS011;3503;50.07605000;8.86719200;2023-02-15T00:19:49;47.67;;;16.60;;
6926;SDS011;3503;50.07605000;8.86719200;2023-02-15T00:34:52;37.57;;;16.60;;
6926;SDS011;3503;50.07605000;8.86719200;2023-02-15T00:49:55;43.60;;;15.03;;
6926;SDS011;3503;50.07605000;8.86719200;2023-02-15T01:04:58;37.00;;;14.93;;
6926;SDS011;3503;50.07605000;8.86719200;2023-02-15T01:20:01;41.37;;;15.50;;
6926;SDS011;3503;50.07605000;8.86719200;2023-02-15T01:35:04;43.77;;;15.63;;
6926;SDS011;3503;50.07605000;8.86719200;2023-02-15T01:50:10;40.73;;;15.07;;
6926;SDS011;3503;50.07605000;8.86719200;2023-02-15T02:05:15;36.80;;;16.30;;
6926;SDS011;3503;50.07605000;8.86719200;2023-02-15T02:20:23;39.53;;;14.47;;
6926;SDS011;3503;50.07605000;8.86719200;2023-02-15T02:35:32;36.23;;;15.10;;
6926;SDS011;3503;50.07605000;8.86719200;2023-02-15T02:50:39;37.30;;;14.50;;
6926;SDS011;3503;50.07605000;8.86719200;2023-02-15T03:05:43;45.23;;;17.23;;
6926;SDS011;3503;50.07605000;8.86719200;2023-02-15T03:20:47;40.37;;;15.00;;
6926;SDS011;3503;50.07605000;8.86719200;2023-02-15T03:35:52;32.77;;;12.87;;
6926;SDS011;3503;50.07605000;8.86719200;2023-02-15T03:50:59;42.07;;;16.17;;
6926;SDS011;3503;50.07605000;8.86719200;2023-02-15T04:06:21;45.47;;;14.87;;
6926;SDS011;3503;50.07605000;8.86719200;2023-02-15T04:21:24;49.73;;;16.50;;
6926;SDS011;3503;50.07605000;8.86719200;2023-02-15T04:36:46;51.23;;;17.30;;
6926;SDS011;3503;50.07605000;8.86719200;2023-02-15T04:51:49;42.43;;;16.07;;
6926;SDS011;3503;50.07605000;8.86719200;2023-02-15T05:06:53;49.10;;;16.40;;
6926;SDS011;3503;50.07605000;8.86719200;2023-02-15T05:21:56;44.93;;;18.00;;
6926;SDS011;3503;50.07605000;8.86719200;2023-02-15T05:36:59;60.90;;;20.50;;
6926;SDS011;3503;50.07605000;8.86719200;2023-02-15T05:52:02;65.00;;;19.13;;
6926;SDS011;3503;50.07605000;8.86719200;2023-02-15T06:07:05;49.13;;;18.03;;
6926;SDS011;3503;50.07605000;8.86719200;2023-02-15T06:22:08;44.87;;;17.77;;
6926;SDS011;3503;50.07605000;8.86719200;2023-02-15T06:37:11;39.23;;;14.70;;
6926;SDS011;3503;50.07605000;8.86719200;2023-02-15T06:52:15;41.57;;;17.10;;
6926;SDS011;3503;50.07605000;8.86719200;2023-02-15T07:07:18;55.97;;;18.67;;
6926;SDS011;3503;50.07605000;8.86719200;2023-02-15T07:22:20;49.10;;;17.80;;
6926;SDS011;3503;50.07605000;8.86719200;2023-02-15T07:37:23;45.23;;;17.37;;
6926;SDS011;3503;50.07605000;8.86719200;2023-02-15T07:52:27;49.27;;;16.67;;
6926;SDS011;3503;50.07605000;8.86719200;2023-02-15T08:07:30;46.27;;;16.03;;
6926;SDS011;3503;50.07605000;8.86719200;2023-02-15T08:22:33;44.17;;;17.00;;
6926;SDS011;3503;50.07605000;8.86719200;2023-02-15T08:37:36;38.53;;;13.03;;
6926;SDS011;3503;50.07605000;8.86719200;2023-02-15T08:52:39;37.40;;;12.33;;
6926;SDS011;3503;50.07605000;8.86719200;2023-02-15T09:07:42;42.77;;;15.20;;
6926;SDS011;3503;50.07605000;8.86719200;2023-02-15T09:22:45;28.67;;;11.80;;
6926;SDS011;3503;50.07605000;8.86719200;2023-02-15T09:37:48;35.00;;;12.73;;
6926;SDS011;3503;50.07605000;8.86719200;2023-02-15T09:52:55;32.17;;;11.67;;
6926;SDS011;3503;50.07605000;8.86719200;2023-02-15T10:08:15;28.20;;;10.47;;
6926;SDS011;3503;50.07605000;8.86719200;2023-02-15T10:23:32;30.40;;;12.00;;
6926;SDS011;3503;50.07605000;8.86719200;2023-02-15T10:38:44;30.30;;;13.00;;
6926;SDS011;3503;50.07605000;8.86719200;2023-02-15T10:53:55;35.07;;;13.70;;
6926;SDS011;3503;50.07605000;8.86719200;2023-02-15T11:09:04;31.73;;;11.27;;
6926;SDS011;3503;50.07605000;8.86719200;2023-02-15T11:24:13;33.70;;;12.67;;
6926;SDS011;3503;50.07605000;8.86719200;2023-02-15T11:39:18;26.77;;;12.50;;
6926;SDS011;3503;50.07605000;8.86719200;2023-02-15T11:54:23;26.87;;;12.00;;
6926;SDS011;3503;50.07605000;8.86719200;2023-02-15T12:09:31;26.30;;;12.20;;
6926;SDS011;3503;50.07605000;8.86719200;2023-02-15T12:24:38;33.37;;;14.20;;
6926;SDS011;3503;50.07605000;8.86719200;2023-02-15T12:39:53;32.37;;;14.73;;
6926;SDS011;3503;50.07605000;8.86719200;2023-02-15T12:54:57;29.73;;;14.50;;
6926;SDS011;3503;50.07605000;8.86719200;2023-02-15T13:25:28;30.90;;;15.90;;
6926;SDS011;3503;50.07605000;8.86719200;2023-02-15T13:40:33;32.00;;;15.73;;
6926;SDS011;3503;50.07605000;8.86719200;2023-02-15T13:55:40;34.77;;;16.67;;
6926;SDS011;3503;50.07605000;8.86719200;2023-02-15T14:10:50;32.70;;;13.63;;
6926;SDS011;3503;50.07605000;8.86719200;2023-02-15T14:25:57;34.70;;;15.93;;
6926;SDS011;3503;50.07605000;8.86719200;2023-02-15T14:41:03;33.13;;;15.70;;
6926;SDS011;3503;50.07605000;8.86719200;2023-02-15T14:56:17;36.30;;;15.37;;
6926;SDS011;3503;50.07605000;8.86719200;2023-02-15T15:11:38;42.40;;;18.73;;
6926;SDS011;3503;50.07605000;8.86719200;2023-02-15T15:26:44;34.70;;;15.63;;
6926;SDS011;3503;50.07605000;8.86719200;2023-02-15T15:41:53;53.80;;;18.90;;
6926;SDS011;3503;50.07605000;8.86719200;2023-02-15T15:57:00;39.27;;;16.47;;
6926;SDS011;3503;50.07605000;8.86719200;2023-02-15T16:12:10;47.37;;;18.10;;
6926;SDS011;3503;50.07605000;8.86719200;2023-02-15T16:27:19;50.53;;;18.10;;
6926;SDS011;3503;50.07605000;8.86719200;2023-02-15T16:42:29;51.13;;;20.73;;
6926;SDS011;3503;50.07605000;8.86719200;2023-02-15T16:57:32;45.67;;;20.00;;
6926;SDS011;3503;50.07605000;8.86719200;2023-02-15T17:12:46;51.53;;;21.63;;
6926;SDS011;3503;50.07605000;8.86719200;2023-02-15T17:27:52;62.33;;;24.17;;
6926;SDS011;3503;50.07605000;8.86719200;2023-02-15T17:42:55;61.20;;;23.87;;
6926;SDS011;3503;50.07605000;8.86719200;2023-02-15T17:57:59;57.40;;;24.37;;
6926;SDS011;3503;50.07605000;8.86719200;2023-02-15T18:13:02;65.40;;;27.20;;
6926;SDS011;3503;50.07605000;8.86719200;2023-02-15T18:28:05;79.33;;;27.17;;
6926;SDS011;3503;50.07605000;8.86719200;2023-02-15T18:43:09;63.20;;;23.37;;
6926;SDS011;3503;50.07605000;8.86719200;2023-02-15T18:58:17;56.07;;;23.83;;
6926;SDS011;3503;50.07605000;8.86719200;2023-02-15T19:13:21;62.00;;;23.37;;
6926;SDS011;3503;50.07605000;8.86719200;2023-02-15T19:28:25;62.63;;;25.23;;
6926;SDS011;3503;50.07605000;8.86719200;2023-02-15T19:43:32;74.93;;;27.17;;
6926;SDS011;3503;50.07605000;8.86719200;2023-02-15T19:58:36;66.20;;;25.67;;
6926;SDS011;3503;50.07605000;8.86719200;2023-02-15T20:13:39;51.77;;;21.33;;
6926;SDS011;3503;50.07605000;8.86719200;2023-02-15T20:28:42;51.13;;;19.47;;
6926;SDS011;3503;50.07605000;8.86719200;2023-02-15T20:43:45;55.30;;;19.93;;
6926;SDS011;3503;50.07605000;8.86719200;2023-02-15T20:58:49;62.87;;;22.30;;
6926;SDS011;3503;50.07605000;8.86719200;2023-02-15T21:13:52;58.80;;;21.40;;
6926;SDS011;3503;50.07605000;8.86719200;2023-02-15T21:28:55;73.45;;;27.63;;
6926;SDS011;3503;50.07605000;8.86719200;2023-02-15T21:43:58;47.47;;;16.87;;
6926;SDS011;3503;50.07605000;8.86719200;2023-02-15T21:59:18;58.47;;;20.13;;
6926;SDS011;3503;50.07605000;8.86719200;2023-02-15T22:14:29;63.87;;;19.83;;
6926;SDS011;3503;50.07605000;8.86719200;2023-02-15T22:29:38;50.13;;;18.77;;
6926;SDS011;3503;50.07605000;8.86719200;2023-02-15T22:44:41;53.40;;;19.37;;
6926;SDS011;3503;50.07605000;8.86719200;2023-02-15T22:59:44;53.53;;;19.50;;
6926;SDS011;3503;50.07605000;8.86719200;2023-02-15T23:14:51;67.17;;;23.97;;
6926;SDS011;3503;50.07605000;8.86719200;2023-02-15T23:29:54;58.80;;;18.63;;
6926;SDS011;3503;50.07605000;8.86719200;2023-02-15T23:44:57;54.80;;;17.60;;
